Time;durP1;ratioP1;P1;durP2;ratioP2;P2;SDS_P1;SDS_P2;PMS_P1;PMS_P2;Temp;Humidity;BMP_temperature;BMP_pressure;BME280_temperature;BME280_humidity;BME280_pressure;Samples;Min_cycle;Max_cycle;Signal;HPM_P1;HPM_P2
2022/04/05 00:02:40;;;;;;;1.73;0.40;;;;;;;5.39;100.00;99854.22;6299623;28;20052;-76
2022/04/05 00:05:42;;;;;;;0.50;0.30;;;;;;;5.37;100.00;99849.09;6300083;28;20053;-76
2022/04/05 00:08:43;;;;;;;0.20;0.20;;;;;;;5.39;100.00;99851.63;6299919;28;20052;-76
2022/04/05 00:11:44;;;;;;;2.92;0.30;;;;;;;5.41;100.00;99855.00;6299269;28;20519;-76
2022/04/05 00:14:47;;;;;;;0.40;0.40;;;;;;;5.43;100.00;99860.97;6299809;28;20055;-77
2022/04/05 00:17:48;;;;;;;0.90;0.35;;;;;;;5.43;100.00;99853.16;6296905;28;20423;-76
2022/04/05 00:20:50;;;;;;;0.22;0.22;;;;;;;5.46;100.00;99855.63;6273344;28;20041;-77
2022/04/05 00:23:51;;;;;;;0.73;0.40;;;;;;;5.47;100.00;99847.75;6274308;28;20048;-76
2022/04/05 00:26:55;;;;;;;1.88;0.50;;;;;;;5.48;100.00;99846.81;6274296;28;20390;-76
2022/04/05 00:29:59;;;;;;;0.93;0.50;;;;;;;5.53;100.00;99850.06;6274097;28;20045;-76
2022/04/05 00:33:00;;;;;;;3.20;0.55;;;;;;;5.57;100.00;99859.41;6273334;28;20044;-76
2022/04/05 00:36:02;;;;;;;0.55;0.47;;;;;;;5.60;100.00;99853.22;6272862;28;20451;-77
2022/04/05 00:39:03;;;;;;;2.45;0.80;;;;;;;5.60;100.00;99845.41;6274332;28;20455;-76
2022/04/05 00:42:05;;;;;;;4.72;0.68;;;;;;;5.59;100.00;99847.19;6273755;28;20052;-77
2022/04/05 00:45:10;;;;;;;1.50;0.47;;;;;;;5.57;100.00;99845.53;6274151;28;20443;-77
2022/04/05 00:48:16;;;;;;;0.47;0.47;;;;;;;5.52;100.00;99852.75;6274212;28;20045;-76
2022/04/05 00:51:18;;;;;;;0.38;0.38;;;;;;;5.52;100.00;99850.13;6273452;28;20516;-76
2022/04/05 00:54:22;;;;;;;4.07;0.50;;;;;;;5.52;100.00;99848.38;6273640;28;20045;-76
2022/04/05 00:57:24;;;;;;;1.23;0.82;;;;;;;5.52;100.00;99847.53;6272228;28;20044;-78
2022/04/05 01:00:27;;;;;;;0.60;0.45;;;;;;;5.51;100.00;99845.84;6271354;28;20049;-76
2022/04/05 01:03:29;;;;;;;1.05;0.65;;;;;;;5.51;100.00;99845.84;6272144;28;20064;-76
2022/04/05 01:06:32;;;;;;;2.95;1.15;;;;;;;5.52;100.00;99843.16;6271860;28;20064;-76
2022/04/05 01:09:34;;;;;;;1.15;0.68;;;;;;;5.49;100.00;99845.91;6271809;28;20053;-76
2022/04/05 01:12:35;;;;;;;1.23;1.00;;;;;;;5.46;100.00;99850.44;6266891;28;20075;-77
2022/04/05 01:15:38;;;;;;;0.43;0.40;;;;;;;5.45;100.00;99859.13;6284093;28;20072;-76
2022/04/05 01:18:40;;;;;;;1.15;0.75;;;;;;;5.44;100.00;99852.25;6285865;28;20048;-76
2022/04/05 01:21:41;;;;;;;3.10;0.70;;;;;;;5.44;100.00;99854.84;6297563;28;20049;-76
2022/04/05 01:24:44;;;;;;;0.65;0.50;;;;;;;5.41;100.00;99861.06;6284689;28;20051;-76
2022/04/05 01:27:46;;;;;;;0.55;0.40;;;;;;;5.46;100.00;99856.47;6270513;28;20510;-77
2022/04/05 01:30:47;;;;;;;5.80;1.00;;;;;;;5.47;100.00;99863.38;6273447;28;20049;-76
2022/04/05 01:33:48;;;;;;;1.05;0.77;;;;;;;5.49;100.00;99860.69;6279833;28;20041;-76
2022/04/05 01:36:52;;;;;;;1.83;1.02;;;;;;;5.49;100.00;99860.69;6272717;28;20053;-76
2022/04/05 01:39:55;;;;;;;3.10;1.15;;;;;;;5.53;100.00;99863.06;6271439;28;20056;-77
2022/04/05 01:42:57;;;;;;;1.63;0.70;;;;;;;5.52;100.00;99857.94;6270992;28;20040;-77
2022/04/05 01:45:58;;;;;;;2.03;0.50;;;;;;;5.52;100.00;99858.78;6271647;28;20041;-76
2022/04/05 01:48:59;;;;;;;0.82;0.57;;;;;;;5.51;100.00;99857.09;6271681;28;20489;-77
2022/04/05 01:52:01;;;;;;;1.05;0.60;;;;;;;5.50;100.00;99862.41;6271443;28;20041;-76
2022/04/05 01:55:04;;;;;;;0.95;0.73;;;;;;;5.49;100.00;99858.91;6274226;28;20052;-77
2022/04/05 01:58:05;;;;;;;7.43;0.70;;;;;;;5.50;100.00;99865.84;6274943;28;20048;-76
2022/04/05 02:01:07;;;;;;;0.50;0.30;;;;;;;5.49;100.00;99858.91;6279097;28;20051;-76
2022/04/05 02:04:09;;;;;;;0.95;0.65;;;;;;;5.53;100.00;99864.84;6288818;28;20052;-76
2022/04/05 02:07:12;;;;;;;3.33;0.55;;;;;;;5.50;100.00;99858.03;6297029;28;20048;-76
2022/04/05 02:10:15;;;;;;;2.60;0.73;;;;;;;5.48;100.00;99859.84;6296783;28;20048;-76
2022/04/05 02:13:17;;;;;;;1.20;0.68;;;;;;;5.47;100.00;99865.13;6296678;28;20040;-76
2022/04/05 02:16:18;;;;;;;2.22;1.08;;;;;;;5.47;100.00;99857.31;6297701;28;20048;-76
2022/04/05 02:19:19;;;;;;;2.33;0.90;;;;;;;5.44;100.00;99876.53;6296631;28;20063;-76
2022/04/05 02:22:20;;;;;;;3.80;0.50;;;;;;;5.48;100.00;99877.25;6296495;28;20048;-76
2022/04/05 02:25:24;;;;;;;1.23;0.80;;;;;;;5.50;100.00;99878.88;6296174;28;20044;-76
2022/04/05 02:28:25;;;;;;;1.27;0.65;;;;;;;5.53;100.00;99890.91;6297239;28;20056;-76
2022/04/05 02:31:27;;;;;;;1.10;1.00;;;;;;;5.50;100.00;99899.72;6296153;28;20561;-76
2022/04/05 02:34:28;;;;;;;2.13;0.50;;;;;;;5.52;100.00;99894.44;6297156;28;20060;-76
2022/04/05 02:37:29;;;;;;;2.55;0.60;;;;;;;5.49;100.00;99892.81;6297090;28;20484;-77
2022/04/05 02:40:32;;;;;;;0.50;0.43;;;;;;;5.46;100.00;99895.56;6296495;28;20055;-77
2022/04/05 02:43:34;;;;;;;1.27;0.70;;;;;;;5.44;100.00;99901.75;6297299;28;20396;-77
2022/04/05 02:46:35;;;;;;;0.73;0.40;;;;;;;5.49;100.00;99894.56;6296902;28;20488;-77
2022/04/05 02:49:37;;;;;;;0.50;0.40;;;;;;;5.53;100.00;99898.72;6297309;28;20044;-77
2022/04/05 02:52:38;;;;;;;1.55;0.80;;;;;;;5.53;100.00;99898.72;6296329;28;20419;-77
2022/04/05 02:55:41;;;;;;;2.75;0.55;;;;;;;5.53;100.00;99903.94;6296450;28;20044;-77
2022/04/05 02:58:47;;;;;;;0.50;0.47;;;;;;;5.51;100.00;99898.81;6296589;28;20052;-77
2022/04/05 03:01:49;;;;;;;2.22;1.02;;;;;;;5.48;100.00;99917.19;6296140;28;20052;-77
2022/04/05 03:04:51;;;;;;;1.10;0.52;;;;;;;5.49;100.00;99920.63;6297213;28;20049;-77
2022/04/05 03:07:52;;;;;;;12.25;1.23;;;;;;;5.44;100.00;99923.44;6296750;28;20423;-76
2022/04/05 03:10:55;;;;;;;1.55;1.02;;;;;;;5.43;100.00;99920.91;6288198;28;20045;-76
2022/04/05 03:13:56;;;;;;;0.68;0.52;;;;;;;5.44;100.00;99920.84;6282806;28;20044;-77
2022/04/05 03:16:57;;;;;;;4.72;1.02;;;;;;;5.46;100.00;99926.00;6283333;28;20052;-77
2022/04/05 03:19:59;;;;;;;2.58;0.63;;;;;;;5.45;100.00;99925.16;6271794;28;20056;-77
2022/04/05 03:23:00;;;;;;;6.47;0.70;;;;;;;5.42;100.00;99938.31;6276995;28;20045;-77
2022/04/05 03:26:03;;;;;;;4.13;1.17;;;;;;;5.41;100.00;99934.03;6288333;28;20049;-76
2022/04/05 03:29:04;;;;;;;1.63;0.80;;;;;;;5.40;100.00;99942.72;6296978;28;20045;-77
2022/04/05 03:32:08;;;;;;;6.57;1.52;;;;;;;5.42;100.00;99945.28;6290469;28;20057;-77
2022/04/05 03:35:10;;;;;;;2.53;0.85;;;;;;;5.43;100.00;99953.03;6289077;28;20041;-77
2022/04/05 03:38:12;;;;;;;0.88;0.60;;;;;;;5.42;100.00;99948.72;6301245;28;20052;-77
2022/04/05 03:41:14;;;;;;;1.02;0.73;;;;;;;5.41;100.00;99947.03;6291618;28;20044;-77
2022/04/05 03:44:15;;;;;;;0.65;0.35;;;;;;;5.40;100.00;99944.50;6276383;28;20049;-77
2022/04/05 03:47:17;;;;;;;1.27;0.38;;;;;;;5.33;100.00;99952.59;6276260;28;20048;-77
2022/04/05 03:50:18;;;;;;;0.30;0.30;;;;;;;5.34;100.00;99951.66;6275168;28;20045;-77
2022/04/05 03:53:20;;;;;;;2.50;0.70;;;;;;;5.33;100.00;99954.34;6275845;28;20048;-77
2022/04/05 03:56:23;;;;;;;0.73;0.40;;;;;;;5.29;100.00;99961.44;6276100;28;20053;-77
2022/04/05 03:59:24;;;;;;;0.32;0.30;;;;;;;5.29;100.00;99961.44;6275944;28;20053;-77
2022/04/05 04:02:26;;;;;;;3.47;1.90;;;;;;;5.25;100.00;99966.88;6274933;28;20511;-77
2022/04/05 04:05:27;;;;;;;2.75;0.40;;;;;;;5.26;100.00;99968.56;6275441;28;20504;-77
2022/04/05 04:08:28;;;;;;;3.90;0.82;;;;;;;5.21;100.00;99973.13;6275158;28;20056;-77
2022/04/05 04:11:31;;;;;;;1.08;0.57;;;;;;;5.23;100.00;99971.31;6274467;28;20052;-77
2022/04/05 04:14:33;;;;;;;2.20;0.82;;;;;;;5.19;100.00;99972.34;6275200;28;20052;-77
2022/04/05 04:17:34;;;;;;;2.22;0.88;;;;;;;5.17;100.00;99989.78;6274955;28;20044;-76
2022/04/05 04:20:38;;;;;;;12.82;0.63;;;;;;;5.16;100.00;99988.94;6273992;28;20072;-76
2022/04/05 04:23:39;;;;;;;3.70;0.70;;;;;;;5.14;100.00;99985.56;6274594;28;20059;-76
2022/04/05 04:26:42;;;;;;;0.70;0.57;;;;;;;5.12;100.00;99983.94;6274671;28;20055;-77
2022/04/05 04:29:44;;;;;;;1.52;0.60;;;;;;;5.11;100.00;99990.91;6274413;28;20045;-76
2022/04/05 04:32:45;;;;;;;1.98;0.47;;;;;;;5.08;100.00;99993.63;6274008;28;20059;-76
2022/04/05 04:35:47;;;;;;;1.30;0.52;;;;;;;5.06;100.00;99985.06;6274402;28;20408;-76
2022/04/05 04:38:49;;;;;;;2.85;0.75;;;;;;;5.05;100.00;99992.03;6274307;28;20061;-76
2022/04/05 04:41:56;;;;;;;0.85;0.40;;;;;;;5.01;100.00;99998.28;6273682;28;20056;-76
2022/04/05 04:44:57;;;;;;;2.25;0.60;;;;;;;5.02;100.00;100001.72;6274253;28;20120;-76
2022/04/05 04:47:58;;;;;;;10.63;0.90;;;;;;;5.02;100.00;100004.31;6273382;28;20045;-76
2022/04/05 04:51:00;;;;;;;3.47;1.38;;;;;;;5.02;100.00;100009.53;6273385;28;20052;-77
2022/04/05 04:54:01;;;;;;;9.98;2.42;;;;;;;5.04;100.00;100018.09;6274175;28;20052;-76
2022/04/05 04:57:04;;;;;;;0.30;0.30;;;;;;;4.99;100.00;100017.47;6273832;28;20052;-76
2022/04/05 05:00:07;;;;;;;2.35;0.85;;;;;;;4.94;100.00;100016.81;6273510;28;20063;-76
2022/04/05 05:03:10;;;;;;;3.60;1.08;;;;;;;4.92;100.00;100029.91;6273539;28;20052;-76
2022/04/05 05:06:12;;;;;;;2.10;0.50;;;;;;;4.92;100.00;100022.09;6273541;28;20068;-76
2022/04/05 05:09:13;;;;;;;1.15;0.40;;;;;;;4.94;100.00;100029.81;6273713;28;20049;-76
2022/04/05 05:12:16;;;;;;;0.95;0.30;;;;;;;4.93;100.00;100033.34;6265626;28;20052;-76
2022/04/05 05:15:19;;;;;;;2.72;0.93;;;;;;;4.91;100.00;100043.84;6285156;28;20041;-76
2022/04/05 05:18:20;;;;;;;0.93;0.40;;;;;;;4.90;100.00;100041.28;6289719;28;20048;-75
2022/04/05 05:21:23;;;;;;;5.20;1.80;;;;;;;4.90;100.00;100039.50;6297641;28;20052;-76
2022/04/05 05:24:24;;;;;;;4.05;1.13;;;;;;;4.91;100.00;100049.03;6293421;28;20052;-76
2022/04/05 05:27:28;;;;;;;0.68;0.30;;;;;;;4.91;100.00;100048.19;6289868;28;20051;-76
2022/04/05 05:30:30;;;;;;;0.80;0.57;;;;;;;4.90;100.00;100049.09;6297040;28;20389;-76
2022/04/05 05:33:32;;;;;;;3.58;0.40;;;;;;;4.93;100.00;100052.41;6284236;28;20049;-76
2022/04/05 05:36:33;;;;;;;2.58;0.28;;;;;;;4.93;100.00;100059.38;6271221;28;20059;-76
2022/04/05 05:39:34;;;;;;;0.47;0.40;;;;;;;4.94;100.00;100069.72;6271079;28;20420;-76
2022/04/05 05:42:47;;;;;;;3.35;0.43;;;;;;;4.97;100.00;100072.22;6270533;28;20057;-76
2022/04/05 05:45:48;;;;;;;0.63;0.30;;;;;;;4.97;100.00;100074.81;6271944;28;20710;-76
2022/04/05 05:48:49;;;;;;;0.65;0.28;;;;;;;4.97;100.00;100079.19;6271019;28;20053;-76
2022/04/05 05:51:51;;;;;;;2.75;0.60;;;;;;;4.96;100.00;100080.94;6270000;28;20056;-76
2022/04/05 05:54:52;;;;;;;1.42;0.70;;;;;;;4.98;100.00;100084.31;6271508;28;20515;-76
2022/04/05 05:57:56;;;;;;;4.00;0.60;;;;;;;5.00;100.00;100081.66;6272217;28;20051;-76
2022/04/05 06:00:57;;;;;;;3.28;1.02;;;;;;;5.03;100.00;100086.72;6271880;28;20053;-76
2022/04/05 06:03:58;;;;;;;1.38;0.57;;;;;;;5.01;100.00;100089.41;6272206;28;20053;-76
2022/04/05 06:06:59;;;;;;;0.47;0.47;;;;;;;5.01;100.00;100097.22;6272490;28;20064;-76
2022/04/05 06:10:01;;;;;;;7.15;0.80;;;;;;;5.04;100.00;100104.03;6272140;28;20056;-76
2022/04/05 06:13:04;;;;;;;1.40;0.88;;;;;;;5.04;100.00;100104.91;6271789;28;20049;-76
2022/04/05 06:16:07;;;;;;;10.02;1.55;;;;;;;5.04;100.00;100122.25;6272285;28;20052;-76
2022/04/05 06:19:09;;;;;;;3.33;1.08;;;;;;;5.06;100.00;100113.50;6271677;28;20044;-76
2022/04/05 06:22:10;;;;;;;2.75;0.60;;;;;;;5.09;100.00;100120.34;6271430;28;20515;-76
2022/04/05 06:25:13;;;;;;;1.98;0.68;;;;;;;5.15;100.00;100114.03;6271764;28;20052;-76
2022/04/05 06:28:18;;;;;;;3.60;0.63;;;;;;;5.22;100.00;100115.47;6271738;28;20416;-76
2022/04/05 06:31:19;;;;;;;3.00;0.50;;;;;;;5.22;100.00;100112.84;6271312;28;20515;-76
2022/04/05 06:34:20;;;;;;;3.92;0.43;;;;;;;5.21;100.00;100114.63;6271554;28;20419;-76
2022/04/05 06:37:22;;;;;;;1.55;0.55;;;;;;;5.29;100.00;100111.69;6271730;28;20056;-76
2022/04/05 06:40:23;;;;;;;0.30;0.30;;;;;;;5.28;100.00;100107.41;6271092;28;20059;-75
2022/04/05 06:43:26;;;;;;;2.63;0.55;;;;;;;5.32;100.00;100106.38;6271741;28;20056;-76
2022/04/05 06:46:27;;;;;;;0.65;0.47;;;;;;;5.34;100.00;100107.13;6271679;28;20136;-76
2022/04/05 06:49:29;;;;;;;2.17;1.02;;;;;;;5.35;100.00;100114.88;6271575;28;20053;-76
2022/04/05 06:52:30;;;;;;;0.38;0.38;;;;;;;5.43;100.00;100116.31;6270629;28;20428;-76
2022/04/05 06:55:31;;;;;;;3.58;0.73;;;;;;;5.46;100.00;100118.81;6271457;28;20044;-75
2022/04/05 06:58:34;;;;;;;2.28;0.43;;;;;;;5.51;100.00;100122.91;6271159;28;20442;-76
2022/04/05 07:01:35;;;;;;;7.07;0.77;;;;;;;5.53;100.00;100121.06;6270616;28;20048;-75
2022/04/05 07:04:37;;;;;;;2.10;0.35;;;;;;;5.55;100.00;100119.28;6271175;28;20446;-75
2022/04/05 07:07:39;;;;;;;6.45;0.47;;;;;;;5.60;100.00;100127.72;6271442;28;20056;-76
2022/04/05 07:10:40;;;;;;;0.70;0.20;;;;;;;5.63;100.00;100129.34;6273615;28;20053;-76
2022/04/05 07:13:43;;;;;;;0.65;0.55;;;;;;;5.64;100.00;100131.06;6275098;28;20053;-75
2022/04/05 07:16:45;;;;;;;1.75;0.43;;;;;;;5.68;100.00;100132.63;6276545;28;20056;-75
2022/04/05 07:19:46;;;;;;;5.47;0.95;;;;;;;5.70;100.00;100128.19;6272641;28;20444;-75
2022/04/05 07:22:49;;;;;;;1.17;0.50;;;;;;;5.72;100.00;100134.19;6281437;28;20045;-76
2022/04/05 07:25:51;;;;;;;0.40;0.20;;;;;;;5.82;100.00;100135.47;6281000;28;20048;-76
2022/04/05 07:28:53;;;;;;;3.38;0.63;;;;;;;5.84;100.00;100124.97;6284694;28;20059;-76
2022/04/05 07:31:55;;;;;;;0.30;0.30;;;;;;;5.87;100.00;100127.47;6275036;28;20052;-76
2022/04/05 07:34:56;;;;;;;5.38;0.60;;;;;;;5.90;100.00;100122.09;6275881;28;20045;-75
2022/04/05 07:37:57;;;;;;;6.00;0.98;;;;;;;5.90;100.00;100121.25;6275641;28;20057;-75
2022/04/05 07:40:59;;;;;;;1.52;0.52;;;;;;;5.98;100.00;100127.84;6274951;28;20045;-75
2022/04/05 07:44:02;;;;;;;0.93;0.30;;;;;;;6.03;100.00;100123.28;6275550;28;20056;-76
2022/04/05 07:47:05;;;;;;;2.30;0.68;;;;;;;6.07;100.00;100131.81;6275539;28;20045;-75
2022/04/05 07:50:08;;;;;;;1.70;0.25;;;;;;;6.08;100.00;100123.91;6275065;28;20052;-75
2022/04/05 07:53:09;;;;;;;1.42;0.30;;;;;;;6.13;100.00;100121.09;6275018;28;20573;-75
2022/04/05 07:56:13;;;;;;;8.23;0.35;;;;;;;6.19;100.00;100126.06;6276306;28;20048;-75
2022/04/05 07:59:16;;;;;;;2.10;0.40;;;;;;;6.23;100.00;100126.78;6288265;28;20049;-75
2022/04/05 08:02:18;;;;;;;6.60;0.65;;;;;;;6.29;100.00;100126.47;6282657;28;20045;-75
2022/04/05 08:05:19;;;;;;;3.13;0.30;;;;;;;6.35;100.00;100129.63;6291806;28;20047;-75
2022/04/05 08:08:21;;;;;;;4.00;0.45;;;;;;;6.33;100.00;100128.88;6275492;28;20053;-75
2022/04/05 08:11:22;;;;;;;3.13;0.60;;;;;;;6.37;100.00;100126.97;6274474;28;20057;-75
2022/04/05 08:14:28;;;;;;;1.00;0.63;;;;;;;6.41;100.00;100135.53;6274881;28;20048;-77
2022/04/05 08:17:30;;;;;;;1.90;0.50;;;;;;;6.49;100.00;100134.22;6274542;28;20144;-75
2022/04/05 08:20:34;;;;;;;2.28;0.70;;;;;;;6.55;100.00;100128.75;6273325;28;20057;-76
2022/04/05 08:23:35;;;;;;;2.83;0.55;;;;;;;6.54;100.00;100121.84;6273783;28;20053;-75
2022/04/05 08:26:36;;;;;;;2.47;0.40;;;;;;;6.51;100.00;100129.78;6274631;28;20041;-76
2022/04/05 08:29:41;;;;;;;1.38;0.52;;;;;;;6.50;100.00;100125.50;6275001;28;20045;-77
2022/04/05 08:32:43;;;;;;;8.55;0.57;;;;;;;6.53;100.00;100127.94;6273827;28;20397;-75
2022/04/05 08:35:45;;;;;;;0.55;0.38;;;;;;;6.53;100.00;100129.72;6274745;28;20522;-78
2022/04/05 08:38:46;;;;;;;1.10;0.40;;;;;;;6.52;100.00;100130.63;6277768;28;20053;-78
2022/04/05 08:41:48;;;;;;;10.18;1.27;;;;;;;6.52;100.00;100133.25;6275629;28;20052;-78
2022/04/05 08:44:52;;;;;;;2.15;1.15;;;;;;;6.52;100.00;100135.84;6276807;28;20049;-77
2022/04/05 08:47:56;;;;;;;6.55;0.60;;;;;;;6.49;100.00;100129.00;6275237;28;20045;-77
2022/04/05 08:50:59;;;;;;;0.50;0.40;;;;;;;6.53;100.00;100130.56;6274163;28;20071;-77
2022/04/05 08:54:00;;;;;;;0.52;0.30;;;;;;;6.48;100.00;100135.16;6276627;28;20432;-79
2022/04/05 08:57:01;;;;;;;1.08;0.30;;;;;;;6.45;100.00;100134.44;6276545;28;20052;-77
2022/04/05 09:00:08;;;;;;;3.83;1.27;;;;;;;6.44;100.00;100133.59;6276077;28;20060;-77
2022/04/05 09:03:10;;;;;;;2.72;0.70;;;;;;;6.43;100.00;100125.84;6273377;28;20056;-76
2022/04/05 09:06:28;;;;;;;4.72;0.30;;;;;;;6.44;100.00;100125.75;6276463;28;20052;-77
2022/04/05 09:09:30;;;;;;;3.57;0.87;;;;;;;6.44;100.00;100125.75;6276501;28;20060;-78
2022/04/05 09:12:38;;;;;;;5.60;1.15;;;;;;;6.41;100.00;100131.16;6276286;28;20421;-77
2022/04/05 09:15:42;;;;;;;7.53;0.50;;;;;;;6.41;100.00;100135.53;6276159;28;20045;-80
2022/04/05 09:18:45;;;;;;;5.38;0.57;;;;;;;6.40;100.00;100136.41;6276509;28;20049;-79
2022/04/05 09:21:52;;;;;;;2.05;0.40;;;;;;;6.38;100.00;100136.50;6278642;28;20045;-76
2022/04/05 09:24:53;;;;;;;1.50;0.50;;;;;;;6.39;100.00;100137.34;6285851;28;20052;-77
2022/04/05 09:27:56;;;;;;;8.45;0.90;;;;;;;6.39;100.00;100132.97;6282102;28;20041;-77
2022/04/05 09:31:01;;;;;;;1.00;0.45;;;;;;;6.38;100.00;100131.28;6284273;28;20056;-77
2022/04/05 09:34:08;;;;;;;2.15;0.80;;;;;;;6.37;100.00;100129.59;6276963;28;20053;-78
2022/04/05 09:37:09;;;;;;;4.50;0.47;;;;;;;6.39;100.00;100129.50;6273308;28;20052;-78
2022/04/05 09:40:23;;;;;;;4.38;0.68;;;;;;;6.32;100.00;100134.19;6272634;28;20551;-76
2022/04/05 09:43:25;;;;;;;3.65;0.75;;;;;;;6.26;100.00;100127.44;6266149;28;20049;-77
2022/04/05 09:46:29;;;;;;;2.78;0.75;;;;;;;6.25;100.00;100135.34;6290308;28;20051;-78
2022/04/05 09:49:33;;;;;;;5.38;1.00;;;;;;;6.21;100.00;100126.81;6297762;28;20067;-77
2022/04/05 09:52:35;;;;;;;3.38;1.50;;;;;;;6.26;100.00;100130.06;6292847;28;20119;-76
2022/04/05 09:55:36;;;;;;;7.45;1.02;;;;;;;6.28;100.00;100123.03;6272303;28;20158;-76
2022/04/05 09:58:45;;;;;;;3.53;1.40;;;;;;;6.28;100.00;100125.63;6273163;28;20060;-77
2022/04/05 10:01:49;;;;;;;1.10;0.68;;;;;;;6.29;100.00;100123.88;6271684;28;20098;-77
2022/04/05 10:05:01;;;;;;;3.70;1.40;;;;;;;6.33;100.00;100121.03;6272495;28;20052;-74
2022/04/05 10:08:04;;;;;;;1.13;0.93;;;;;;;6.40;100.00;100121.59;6271858;28;20044;-77
2022/04/05 10:11:05;;;;;;;9.80;1.83;;;;;;;6.45;100.00;100122.25;6276737;28;20075;-75
2022/04/05 10:14:08;;;;;;;2.50;0.90;;;;;;;6.48;100.00;100109.03;6273286;28;20040;-77
2022/04/05 10:17:14;;;;;;;1.27;0.95;;;;;;;6.52;100.00;100109.75;6272706;28;20049;-75
2022/04/05 10:20:17;;;;;;;2.13;1.30;;;;;;;6.55;100.00;100113.06;6271409;28;20048;-76
2022/04/05 10:23:22;;;;;;;2.28;0.93;;;;;;;6.54;100.00;100114.00;6271932;28;20048;-77
2022/04/05 10:26:24;;;;;;;2.33;0.90;;;;;;;6.62;100.00;100118.84;6271835;28;20049;-76
2022/04/05 10:29:27;;;;;;;2.33;0.90;;;;;;;6.57;100.00;100126.03;6271838;28;20052;-76
2022/04/05 10:32:34;;;;;;;1.73;0.95;;;;;;;6.52;100.00;100115.81;6280134;28;20059;-77
2022/04/05 10:35:42;;;;;;;4.75;1.67;;;;;;;6.48;100.00;100122.09;6296586;28;20072;-77
2022/04/05 10:38:43;;;;;;;3.00;1.58;;;;;;;6.56;100.00;100119.13;6294500;28;20419;-77
2022/04/05 10:41:45;;;;;;;3.08;1.42;;;;;;;6.56;100.00;100117.38;6281101;28;20045;-77
2022/04/05 10:44:53;;;;;;;5.05;1.42;;;;;;;6.59;100.00;100113.78;6287249;28;20055;-77
2022/04/05 10:48:12;;;;;;;7.07;1.48;;;;;;;6.69;100.00;100119.41;6284912;28;20183;-77
2022/04/05 10:51:30;;;;;;;5.53;1.13;;;;;;;6.74;100.00;100118.28;6277444;28;20522;-77
2022/04/05 10:54:37;;;;;;;5.43;1.15;;;;;;;6.77;100.00;100114.69;6286679;28;20291;-77
2022/04/05 10:57:39;;;;;;;6.07;1.48;;;;;;;6.78;100.00;100111.97;6296353;28;20045;-77
2022/04/05 11:00:48;;;;;;;3.70;1.50;;;;;;;6.80;100.00;100117.13;6292503;28;20571;-77
2022/04/05 11:04:20;;;;;;;2.13;1.42;;;;;;;6.83;100.00;100115.22;6287873;28;20075;-77
2022/04/05 11:07:23;;;;;;;7.30;1.48;;;;;;;6.83;100.00;100110.00;6283221;28;20480;-77
2022/04/05 11:10:28;;;;;;;6.15;1.35;;;;;;;6.81;100.00;100108.34;6283990;28;20053;-79
2022/04/05 11:13:39;;;;;;;2.55;1.88;;;;;;;6.88;100.00;100108.94;6278027;28;20055;-77
2022/04/05 11:16:42;;;;;;;2.35;1.85;;;;;;;6.93;100.00;100093.88;6270106;28;20272;-76
2022/04/05 11:19:46;;;;;;;4.20;2.38;;;;;;;7.00;100.00;100097.91;6269368;28;20689;-76
2022/04/05 11:23:00;;;;;;;3.22;2.33;;;;;;;7.05;100.00;100093.28;6269791;28;20045;-77
2022/04/05 11:26:23;;;;;;;5.50;1.95;;;;;;;7.11;100.00;100096.44;6269946;28;20041;-76
2022/04/05 11:29:24;;;;;;;4.40;2.47;;;;;;;7.09;100.00;100092.22;6271036;28;20151;-76
2022/04/05 11:32:25;;;;;;;7.88;1.95;;;;;;;7.14;100.00;100087.59;6278920;28;20464;-76
2022/04/05 11:35:27;;;;;;;4.07;2.00;;;;;;;7.17;100.00;100082.19;6295730;28;20488;-76
2022/04/05 11:38:32;;;;;;;8.07;1.77;;;;;;;7.19;100.00;100084.75;6295635;28;20393;-75
2022/04/05 11:41:33;;;;;;;6.22;1.85;;;;;;;7.15;100.00;100084.06;6295002;28;20064;-76
2022/04/05 11:44:35;;;;;;;4.05;1.48;;;;;;;7.22;100.00;100071.53;6295755;28;20059;-77
2022/04/05 11:47:36;;;;;;;3.78;1.58;;;;;;;7.26;100.00;100079.13;6283339;28;20042;-77
2022/04/05 11:50:38;;;;;;;2.63;1.60;;;;;;;7.25;100.00;100074.84;6269852;28;20053;-77
2022/04/05 11:53:42;;;;;;;3.45;1.70;;;;;;;7.27;100.00;100072.16;6270949;28;20076;-76
2022/04/05 11:56:44;;;;;;;2.65;1.42;;;;;;;7.17;100.00;100074.38;6273146;28;20045;-77
2022/04/05 11:59:45;;;;;;;4.45;1.38;;;;;;;7.08;100.00;100075.66;6274807;28;20059;-76
2022/04/05 12:02:46;;;;;;;2.58;1.27;;;;;;;7.07;100.00;100073.97;6274593;28;20049;-77
2022/04/05 12:05:48;;;;;;;14.00;1.90;;;;;;;7.13;100.00;100070.25;6274965;28;20048;-76
2022/04/05 12:08:53;;;;;;;2.60;1.88;;;;;;;7.14;100.00;100071.09;6275181;28;20056;-80
2022/04/05 12:11:55;;;;;;;1.25;0.98;;;;;;;7.11;100.00;100065.06;6274185;28;20041;-77
2022/04/05 12:14:56;;;;;;;2.58;1.40;;;;;;;7.14;100.00;100056.25;6269490;28;20045;-76
2022/04/05 12:18:16;;;;;;;3.10;2.00;;;;;;;7.26;100.00;100053.00;6287445;28;20041;-78
2022/04/05 12:21:19;;;;;;;3.88;2.35;;;;;;;7.35;100.00;100055.13;6275167;28;20080;-77
2022/04/05 12:24:22;;;;;;;2.67;1.85;;;;;;;7.38;100.00;100055.00;6274725;28;20045;-77
2022/04/05 12:27:27;;;;;;;2.28;1.70;;;;;;;7.38;100.00;100049.75;6274378;28;20520;-77
2022/04/05 12:30:30;;;;;;;2.90;1.42;;;;;;;7.43;100.00;100053.91;6274178;28;20057;-77
2022/04/05 12:33:32;;;;;;;1.52;1.10;;;;;;;7.48;100.00;100041.44;6274410;28;20102;-77
2022/04/05 12:36:35;;;;;;;2.60;1.80;;;;;;;7.48;100.00;100037.06;6274749;28;20493;-77
2022/04/05 12:39:43;;;;;;;5.22;2.17;;;;;;;7.55;100.00;100032.38;6274093;28;20056;-77
2022/04/05 12:42:45;;;;;;;3.22;1.75;;;;;;;7.59;100.00;100032.13;6274115;28;20051;-77
2022/04/05 12:45:47;;;;;;;4.25;1.52;;;;;;;7.66;100.00;100027.41;6274186;28;20051;-76
2022/04/05 12:48:48;;;;;;;6.78;1.40;;;;;;;7.77;100.00;100024.25;6274426;28;20045;-77
2022/04/05 12:51:51;;;;;;;1.27;0.98;;;;;;;7.87;100.00;100022.81;6273854;28;20052;-77
2022/04/05 12:54:55;;;;;;;1.92;1.25;;;;;;;7.94;100.00;100023.31;6273862;28;20049;-77
2022/04/05 12:57:56;;;;;;;1.48;1.00;;;;;;;7.97;100.00;100024.00;6275466;28;20048;-77
2022/04/05 13:00:58;;;;;;;1.27;0.65;;;;;;;8.00;100.00;100021.22;6274298;28;20500;-77
2022/04/05 13:04:03;;;;;;;4.90;1.08;;;;;;;8.03;100.00;100025.44;6276028;28;20049;-77
2022/04/05 13:07:05;;;;;;;2.20;1.00;;;;;;;7.99;100.00;100027.38;6272895;28;20045;-77
2022/04/05 13:10:12;;;;;;;2.47;1.27;;;;;;;7.99;100.00;100026.53;6274483;28;20052;-77
2022/04/05 13:13:20;;;;;;;1.65;0.80;;;;;;;7.99;100.00;100027.38;6275244;28;20060;-77
2022/04/05 13:16:26;;;;;;;1.45;1.00;;;;;;;7.98;100.00;100019.63;6273981;28;20550;-77
2022/04/05 13:19:28;;;;;;;1.50;1.10;;;;;;;7.98;100.00;100023.06;6273077;28;20049;-77
2022/04/05 13:22:29;;;;;;;1.70;1.00;;;;;;;7.98;100.00;100022.22;6272704;28;20049;-76
2022/04/05 13:25:36;;;;;;;1.38;1.05;;;;;;;7.98;100.00;100023.06;6273088;28;20044;-77
2022/04/05 13:28:37;;;;;;;2.22;0.65;;;;;;;7.98;100.00;100017.84;6289787;28;20045;-77
2022/04/05 13:31:49;;;;;;;1.05;0.70;;;;;;;8.05;100.00;100018.38;6283898;28;20060;-76
2022/04/05 13:34:50;;;;;;;1.67;1.02;;;;;;;8.12;100.00;100015.31;6272914;28;20049;-76
2022/04/05 13:37:51;;;;;;;1.05;0.80;;;;;;;8.18;100.00;100003.69;6285175;28;20036;-77
2022/04/05 13:40:54;;;;;;;1.50;1.00;;;;;;;8.33;100.00;99991.50;6272795;28;20045;-77
2022/04/05 13:43:57;;;;;;;0.85;0.85;;;;;;;8.45;100.00;99989.97;6272540;28;20132;-77
2022/04/05 13:46:58;;;;;;;1.10;1.00;;;;;;;8.59;100.00;99984.84;6282836;28;20044;-77
2022/04/05 13:50:00;;;;;;;1.73;1.25;;;;;;;8.72;100.00;99991.06;6260211;28;20787;-76
2022/04/05 13:53:01;;;;;;;3.60;0.90;;;;;;;8.72;100.00;99980.56;6247665;28;20064;-77
2022/04/05 13:56:04;;;;;;;1.60;1.02;;;;;;;8.73;100.00;99977.00;6248001;28;20053;-76
2022/04/05 13:59:06;;;;;;;1.45;1.10;;;;;;;8.75;100.00;99972.50;6250706;28;20045;-75
2022/04/05 14:02:07;;;;;;;1.65;1.15;;;;;;;8.79;100.00;99974.03;6278603;28;20064;-75
2022/04/05 14:05:09;;;;;;;1.42;0.98;;;;;;;8.75;100.00;99967.28;6288481;28;20056;-75
2022/04/05 14:08:10;;;;;;;2.13;1.00;;;;;;;8.87;100.00;99953.47;6286244;28;20041;-75
2022/04/05 14:11:14;;;;;;;2.80;1.17;;;;;;;9.07;100.00;99965.38;6269764;28;20048;-77
2022/04/05 14:14:15;;;;;;;1.10;0.75;;;;;;;9.23;100.00;99954.84;6280069;28;20044;-77
2022/04/05 14:17:16;;;;;;;1.83;1.08;;;;;;;9.37;100.00;99946.97;6288087;28;20051;-77